createdAt,value
2019-02-04T00:02:19.078Z,31.50
2019-02-04T00:07:37.774Z,34.27
2019-02-04T00:12:56.395Z,31.43
2019-02-04T00:18:15.066Z,27.60
2019-02-04T00:23:35.192Z,44.80
2019-02-04T00:28:53.776Z,57.63
2019-02-04T00:34:12.599Z,45.33
2019-02-04T00:39:31.214Z,43.77
2019-02-04T00:44:50.127Z,54.33
2019-02-04T00:50:12.009Z,53.47
2019-02-04T00:55:30.658Z,63.87
2019-02-04T01:00:49.356Z,51.30
2019-02-04T01:06:08.000Z,52.53
2019-02-04T01:11:26.641Z,50.50
2019-02-04T01:16:45.947Z,65.53
2019-02-04T01:22:04.668Z,55.90
2019-02-04T01:27:23.277Z,44.43
2019-02-04T01:32:41.753Z,62.23
2019-02-04T01:38:00.295Z,49.67
2019-02-04T01:43:18.785Z,48.00
2019-02-04T01:48:37.620Z,47.10
2019-02-04T01:53:56.195Z,45.03
2019-02-04T01:59:15.058Z,44.87
2019-02-04T02:04:34.318Z,44.00
2019-02-04T02:09:52.976Z,47.05
2019-02-04T02:15:11.579Z,55.10
2019-02-04T02:20:30.593Z,57.10
2019-02-04T02:25:49.255Z,56.10
2019-02-04T02:31:07.875Z,60.83
2019-02-04T02:36:26.694Z,54.30
2019-02-04T02:41:45.246Z,62.60
2019-02-04T02:47:03.806Z,73.10
2019-02-04T02:52:22.359Z,67.87
2019-02-04T02:57:41.057Z,62.37
2019-02-04T03:03:00.924Z,72.07
2019-02-04T03:08:19.423Z,61.50
2019-02-04T03:13:38.081Z,63.30
2019-02-04T03:18:56.643Z,51.15
2019-02-04T03:24:15.218Z,58.40
2019-02-04T03:29:33.790Z,65.33
2019-02-04T03:34:52.279Z,53.47
2019-02-04T03:40:14.099Z,54.63
2019-02-04T03:45:32.708Z,48.87
2019-02-04T03:50:51.260Z,56.57
2019-02-04T03:56:09.877Z,51.63
2019-02-04T04:01:29.166Z,59.43
2019-02-04T04:06:47.809Z,52.83
2019-02-04T04:12:06.409Z,50.10
2019-02-04T04:17:25.255Z,47.80
2019-02-04T04:22:43.883Z,47.80
2019-02-04T04:28:02.426Z,44.57
2019-02-04T04:33:21.040Z,45.88
2019-02-04T04:38:39.531Z,42.17
2019-02-04T04:43:58.153Z,35.97
2019-02-04T04:49:16.699Z,40.00
2019-02-04T04:54:35.471Z,42.50
2019-02-04T04:59:54.357Z,43.13
2019-02-04T05:05:14.477Z,39.23
2019-02-04T05:10:33.030Z,46.23
2019-02-04T05:15:51.796Z,49.70
2019-02-04T05:21:10.410Z,43.00
2019-02-04T05:26:29.052Z,46.30
2019-02-04T05:31:47.602Z,39.20
2019-02-04T05:37:06.251Z,36.57
2019-02-04T05:42:24.799Z,42.77
2019-02-04T05:47:43.431Z,39.23
2019-02-04T05:53:03.858Z,34.77
2019-02-04T05:58:22.440Z,25.57
2019-02-04T06:03:41.361Z,35.30
2019-02-04T06:09:00.102Z,26.77
2019-02-04T06:14:18.750Z,31.60
2019-02-04T06:19:37.519Z,30.33
2019-02-04T06:24:56.148Z,27.77
2019-02-04T06:30:16.634Z,21.70
2019-02-04T06:35:35.274Z,22.33
2019-02-04T06:40:53.881Z,29.12
2019-02-04T06:46:12.519Z,35.47
2019-02-04T06:51:31.123Z,31.13
2019-02-04T06:56:49.637Z,27.73
2019-02-04T07:02:08.304Z,25.90
2019-02-04T07:07:26.928Z,30.13
2019-02-04T07:12:45.791Z,24.03
2019-02-04T07:18:04.404Z,26.53
2019-02-04T07:23:23.000Z,26.77
2019-02-04T07:28:41.645Z,19.40
2019-02-04T07:34:00.186Z,22.83
2019-02-04T07:39:18.739Z,19.53
2019-02-04T07:44:37.297Z,24.00
2019-02-04T07:49:55.841Z,25.85
2019-02-04T07:55:14.846Z,26.43
2019-02-04T08:00:36.417Z,23.77
2019-02-04T08:05:54.961Z,25.83
2019-02-04T08:11:13.581Z,28.23
2019-02-04T08:16:32.070Z,26.20
2019-02-04T08:21:50.686Z,19.23
2019-02-04T08:27:09.317Z,21.07
2019-02-04T08:32:27.862Z,23.37
2019-02-04T08:37:46.489Z,21.77
2019-02-04T08:43:05.207Z,26.73
2019-02-04T08:48:23.842Z,22.97
2019-02-04T08:53:42.404Z,14.23
2019-02-04T08:59:01.021Z,14.57
2019-02-04T09:04:19.747Z,13.93
2019-02-04T09:09:38.433Z,16.30
2019-02-04T09:14:56.973Z,17.10
2019-02-04T09:20:17.740Z,18.35
2019-02-04T09:25:36.386Z,14.93
2019-02-04T09:30:55.089Z,19.30
2019-02-04T09:36:13.697Z,17.00
2019-02-04T09:41:32.275Z,17.37
2019-02-04T09:46:51.133Z,15.07
2019-02-04T09:52:09.813Z,19.33
2019-02-04T09:57:28.503Z,14.43
2019-02-04T10:02:47.141Z,12.47
2019-02-04T10:08:06.751Z,13.62
2019-02-04T10:13:25.398Z,19.60
2019-02-04T10:18:43.927Z,17.73
2019-02-04T10:24:02.540Z,13.63
2019-02-04T10:29:21.276Z,16.33
2019-02-04T10:34:39.877Z,17.17
2019-02-04T10:39:58.631Z,18.10
2019-02-04T10:45:18.891Z,13.22
2019-02-04T10:50:46.122Z,11.47
2019-02-04T10:55:59.880Z,14.63
2019-02-04T11:01:19.045Z,19.63
2019-02-04T11:06:37.728Z,10.57
2019-02-04T11:11:56.311Z,12.97
2019-02-04T11:17:15.089Z,12.90
2019-02-04T11:22:33.689Z,10.47
2019-02-04T11:27:52.268Z,12.03
2019-02-04T11:33:11.096Z,12.60
2019-02-04T11:38:29.739Z,11.37
2019-02-04T11:43:48.221Z,6.30
2019-02-04T11:49:06.817Z,8.40
2019-02-04T11:54:25.429Z,8.53
2019-02-04T11:59:44.256Z,7.87
2019-02-04T12:05:02.763Z,7.03
2019-02-04T12:10:24.283Z,9.77
2019-02-04T12:15:42.897Z,9.40
2019-02-04T12:21:01.470Z,9.15
2019-02-04T12:26:20.015Z,10.87
2019-02-04T12:31:38.624Z,8.23
2019-02-04T12:36:57.256Z,7.80
2019-02-04T12:42:16.111Z,5.53
2019-02-04T12:47:36.112Z,10.33
2019-02-04T12:52:54.726Z,11.00
2019-02-04T12:58:13.342Z,8.63
2019-02-04T13:03:31.948Z,10.27
2019-02-04T13:08:50.485Z,10.60
2019-02-04T13:14:09.282Z,7.27
2019-02-04T13:19:27.828Z,10.93
2019-02-04T13:24:46.430Z,13.87
2019-02-04T13:30:11.209Z,8.57
2019-02-04T13:35:31.096Z,9.00
2019-02-04T13:40:49.727Z,7.33
2019-02-04T13:46:08.334Z,9.13
2019-02-04T13:51:26.953Z,12.40
2019-02-04T13:56:49.532Z,7.60
2019-02-04T14:02:08.686Z,4.97
2019-02-04T14:07:27.297Z,12.57
2019-02-04T14:12:46.495Z,11.30
2019-02-04T14:18:06.219Z,9.17
2019-02-04T14:23:27.468Z,7.73
2019-02-04T14:28:45.356Z,8.87
2019-02-04T14:34:06.357Z,14.40
2019-02-04T14:39:25.121Z,6.30
2019-02-04T14:44:45.127Z,8.87
2019-02-04T14:50:12.329Z,8.53
2019-02-04T14:55:46.092Z,8.77
2019-02-04T15:01:36.210Z,5.10
2019-02-04T15:07:00.577Z,10.45
2019-02-04T15:12:38.655Z,6.07
2019-02-04T15:18:11.387Z,5.40
2019-02-04T15:23:44.869Z,6.72
2019-02-04T15:29:09.261Z,11.30
2019-02-04T15:34:36.267Z,7.43
2019-02-04T15:40:00.851Z,6.97
2019-02-04T15:45:56.911Z,8.00
2019-02-04T15:51:24.504Z,9.13
2019-02-04T15:56:43.285Z,4.97
2019-02-04T16:02:01.905Z,5.70
2019-02-04T16:07:20.445Z,7.17
2019-02-04T16:12:39.075Z,5.67
2019-02-04T16:17:57.628Z,7.03
2019-02-04T16:23:16.236Z,5.63
2019-02-04T16:28:34.769Z,5.50
2019-02-04T16:33:53.460Z,8.37
2019-02-04T16:39:12.407Z,8.30
2019-02-04T16:44:31.087Z,6.80
2019-02-04T16:49:49.688Z,3.20
2019-02-04T16:55:08.901Z,3.50
2019-02-04T17:00:29.629Z,5.10
2019-02-04T17:05:48.317Z,3.93
2019-02-04T17:11:06.922Z,6.87
2019-02-04T17:16:25.806Z,5.50
2019-02-04T17:21:44.617Z,4.80
2019-02-04T17:27:03.210Z,6.30
2019-02-04T17:32:22.261Z,5.73
2019-02-04T17:37:40.882Z,6.40
2019-02-04T17:42:59.497Z,5.73
2019-02-04T17:48:18.139Z,4.83
2019-02-04T17:53:36.746Z,5.43
2019-02-04T17:58:55.359Z,4.77
2019-02-04T18:04:13.968Z,4.20
2019-02-04T18:09:32.516Z,8.03
2019-02-04T18:14:51.170Z,5.50
2019-02-04T18:20:11.664Z,4.15
2019-02-04T18:25:30.293Z,5.53
2019-02-04T18:30:48.859Z,7.50
2019-02-04T18:36:07.488Z,2.20
2019-02-04T18:41:26.237Z,3.27
2019-02-04T18:46:44.810Z,5.63
2019-02-04T18:52:03.460Z,4.60
2019-02-04T18:57:22.345Z,6.90
2019-02-04T19:02:43.815Z,7.60
2019-02-04T19:08:02.440Z,2.97
2019-02-04T19:13:21.072Z,3.87
2019-02-04T19:18:39.654Z,6.87
2019-02-04T19:24:09.067Z,4.60
2019-02-04T19:29:18.812Z,8.57
2019-02-04T19:34:37.802Z,7.90
2019-02-04T19:39:56.330Z,4.73
2019-02-04T19:45:20.371Z,8.43
2019-02-04T19:50:39.368Z,5.53
2019-02-04T19:55:58.393Z,8.93
2019-02-04T20:01:16.992Z,8.97
2019-02-04T20:06:35.566Z,4.83
2019-02-04T20:11:54.319Z,12.10
2019-02-04T20:17:12.890Z,7.10
2019-02-04T20:22:31.565Z,5.73
2019-02-04T20:27:50.360Z,10.40
2019-02-04T20:33:10.571Z,9.73
2019-02-04T20:38:29.407Z,9.93
2019-02-04T20:43:55.946Z,3.37
2019-02-04T20:49:14.606Z,7.97
2019-02-04T20:54:44.547Z,8.47
2019-02-04T20:59:53.559Z,7.47
2019-02-04T21:05:12.743Z,10.13
2019-02-04T21:10:31.762Z,9.13
2019-02-04T21:15:50.339Z,10.43
2019-02-04T21:21:09.009Z,6.80
2019-02-04T21:26:27.837Z,7.63
2019-02-04T21:31:46.328Z,7.37
2019-02-04T21:37:31.281Z,12.10
2019-02-04T21:42:54.090Z,8.33
2019-02-04T21:48:12.792Z,11.63
2019-02-04T21:53:31.341Z,11.17
2019-02-04T21:58:49.957Z,6.70
2019-02-04T22:04:08.675Z,8.00
2019-02-04T22:09:27.225Z,9.63
2019-02-04T22:14:45.773Z,7.70
2019-02-04T22:20:09.373Z,10.47
2019-02-04T22:25:28.078Z,10.80
2019-02-04T22:30:49.801Z,10.60
2019-02-04T22:36:08.545Z,9.87
2019-02-04T22:41:27.175Z,8.38
2019-02-04T22:46:45.755Z,9.27
2019-02-04T22:52:04.676Z,8.23
2019-02-04T22:57:23.300Z,11.47
2019-02-04T23:02:42.083Z,10.50
2019-02-04T23:08:00.699Z,9.45
2019-02-04T23:13:19.340Z,8.60
2019-02-04T23:18:37.889Z,13.83
2019-02-04T23:23:56.503Z,4.03
2019-02-04T23:29:15.127Z,14.10
2019-02-04T23:34:33.667Z,14.27
2019-02-04T23:39:52.204Z,15.67
2019-02-04T23:45:11.826Z,13.93
2019-02-04T23:50:30.746Z,11.27
2019-02-04T23:55:54.750Z,11.80
